createdAt,value
2018-06-01T00:00:16.341Z,7.73
2018-06-01T00:02:47.115Z,6.77
2018-06-01T00:05:17.931Z,7.50
2018-06-01T00:07:48.700Z,7.93
2018-06-01T00:10:19.500Z,7.73
2018-06-01T00:12:50.305Z,6.63
2018-06-01T00:15:21.141Z,6.70
2018-06-01T00:17:51.913Z,7.90
2018-06-01T00:20:22.740Z,7.77
2018-06-01T00:22:53.509Z,7.03
2018-06-01T00:25:24.317Z,7.10
2018-06-01T00:27:55.124Z,7.10
2018-06-01T00:30:25.962Z,7.60
2018-06-01T00:32:57.436Z,7.10
2018-06-01T00:35:28.261Z,7.07
2018-06-01T00:37:59.051Z,7.30
2018-06-01T00:40:29.833Z,7.57
2018-06-01T00:43:00.594Z,7.83
2018-06-01T00:45:31.424Z,7.53
2018-06-01T00:48:02.256Z,7.20
2018-06-01T00:50:33.071Z,8.70
2018-06-01T00:53:03.872Z,7.70
2018-06-01T00:55:34.700Z,8.07
2018-06-01T00:58:05.500Z,8.17
2018-06-01T01:00:36.349Z,8.67
2018-06-01T01:03:07.127Z,8.63
2018-06-01T01:05:37.919Z,8.33
2018-06-01T01:08:08.700Z,7.80
2018-06-01T01:10:39.503Z,8.77
2018-06-01T01:13:10.292Z,8.07
2018-06-01T01:15:41.090Z,8.00
2018-06-01T01:18:11.885Z,7.77
2018-06-01T01:20:43.622Z,7.83
2018-06-01T01:23:14.458Z,7.83
2018-06-01T01:25:45.277Z,9.30
2018-06-01T01:28:16.051Z,8.70
2018-06-01T01:30:46.849Z,8.50
2018-06-01T01:33:17.616Z,8.97
2018-06-01T01:35:48.426Z,7.57
2018-06-01T01:38:19.204Z,7.33
2018-06-01T01:40:57.264Z,9.27
2018-06-01T01:43:28.073Z,7.27
2018-06-01T01:45:58.868Z,7.53
2018-06-01T01:48:29.663Z,7.27
2018-06-01T01:51:00.476Z,5.80
2018-06-01T01:53:31.292Z,8.20
2018-06-01T01:56:02.100Z,6.43
2018-06-01T01:58:32.904Z,6.10
2018-06-01T02:01:03.734Z,5.90
2018-06-01T02:03:34.508Z,5.77
2018-06-01T02:06:05.429Z,5.80
2018-06-01T02:08:36.228Z,6.13
2018-06-01T02:11:07.019Z,8.20
2018-06-01T02:13:37.806Z,6.33
2018-06-01T02:16:08.623Z,5.03
2018-06-01T02:18:39.416Z,7.77
2018-06-01T02:21:10.209Z,4.73
2018-06-01T02:23:40.975Z,6.87
2018-06-01T02:26:11.783Z,4.70
2018-06-01T02:28:42.596Z,4.60
2018-06-01T02:31:13.414Z,6.00
2018-06-01T02:33:44.181Z,4.20
2018-06-01T02:36:15.056Z,5.00
2018-06-01T02:38:45.855Z,4.97
2018-06-01T02:41:16.746Z,4.60
2018-06-01T02:43:47.580Z,6.00
2018-06-01T02:46:18.417Z,5.30
2018-06-01T02:48:49.212Z,6.43
2018-06-01T02:51:20.033Z,5.10
2018-06-01T02:53:50.805Z,4.43
2018-06-01T02:56:21.608Z,4.07
2018-06-01T02:58:52.386Z,5.53
2018-06-01T03:01:23.183Z,5.87
2018-06-01T03:03:53.956Z,5.47
2018-06-01T03:06:28.598Z,3.50
2018-06-01T03:08:59.390Z,3.93
2018-06-01T03:11:30.173Z,3.87
2018-06-01T03:14:00.942Z,5.13
2018-06-01T03:16:31.761Z,5.73
2018-06-01T03:19:02.552Z,8.50
2018-06-01T03:21:33.360Z,3.93
2018-06-01T03:24:04.168Z,5.57
2018-06-01T03:26:34.960Z,3.93
2018-06-01T03:29:05.748Z,3.70
2018-06-01T03:31:36.562Z,4.47
2018-06-01T03:34:07.374Z,4.03
2018-06-01T03:36:38.195Z,4.10
2018-06-01T03:39:08.990Z,4.10
2018-06-01T03:41:39.804Z,4.33
2018-06-01T03:44:10.573Z,4.80
2018-06-01T03:46:41.381Z,7.20
2018-06-01T03:49:12.177Z,6.43
2018-06-01T03:51:42.992Z,6.97
2018-06-01T03:54:13.764Z,4.30
2018-06-01T03:56:44.567Z,10.20
2018-06-01T03:59:15.342Z,5.87
2018-06-01T04:01:46.155Z,7.27
2018-06-01T04:04:16.952Z,4.27
2018-06-01T04:06:47.755Z,4.40
2018-06-01T04:09:18.594Z,5.17
2018-06-01T04:11:49.488Z,4.50
2018-06-01T04:14:20.279Z,4.27
2018-06-01T04:16:51.065Z,4.53
2018-06-01T04:19:21.876Z,4.93
2018-06-01T04:21:52.679Z,4.40
2018-06-01T04:24:23.514Z,6.87
2018-06-01T04:26:54.321Z,6.40
2018-06-01T04:29:25.117Z,3.90
2018-06-01T04:31:55.945Z,5.87
2018-06-01T04:34:26.731Z,4.80
2018-06-01T04:36:57.562Z,4.50
2018-06-01T04:39:28.377Z,4.20
2018-06-01T04:41:59.187Z,4.10
2018-06-01T04:44:29.990Z,3.63
2018-06-01T04:47:01.599Z,4.77
2018-06-01T04:49:32.388Z,8.73
2018-06-01T04:52:03.270Z,4.63
2018-06-01T04:54:34.042Z,4.50
2018-06-01T04:57:04.858Z,5.23
2018-06-01T04:59:35.653Z,3.87
2018-06-01T05:02:06.497Z,4.40
2018-06-01T05:04:37.316Z,4.00
2018-06-01T05:07:08.115Z,4.00
2018-06-01T05:09:38.896Z,3.03
2018-06-01T05:12:09.704Z,3.43
2018-06-01T05:14:40.488Z,4.03
2018-06-01T05:17:11.368Z,4.00
2018-06-01T05:19:42.189Z,5.10
2018-06-01T05:22:13.029Z,4.30
2018-06-01T05:24:43.760Z,2.87
2018-06-01T05:27:14.549Z,3.70
2018-06-01T05:29:45.331Z,4.30
2018-06-01T05:32:16.142Z,3.00
2018-06-01T05:34:46.922Z,4.80
2018-06-01T05:37:17.787Z,4.27
2018-06-01T05:39:48.584Z,3.60
2018-06-01T05:42:19.381Z,3.30
2018-06-01T05:44:50.189Z,3.07
2018-06-01T05:47:21.070Z,3.50
2018-06-01T05:49:51.873Z,3.10
2018-06-01T05:52:22.693Z,3.57
2018-06-01T05:54:54.466Z,3.10
2018-06-01T05:57:25.291Z,2.57
2018-06-01T05:59:56.085Z,4.40
2018-06-01T06:02:26.870Z,3.80
2018-06-01T06:04:58.664Z,2.70
2018-06-01T06:07:29.458Z,4.17
2018-06-01T06:10:00.252Z,3.47
2018-06-01T06:12:31.070Z,3.50
2018-06-01T06:15:01.880Z,2.93
2018-06-01T06:17:32.696Z,4.03
2018-06-01T06:20:03.516Z,3.70
2018-06-01T06:22:34.307Z,2.30
2018-06-01T06:25:05.081Z,2.57
2018-06-01T06:27:35.961Z,2.60
2018-06-01T06:30:07.822Z,3.60
2018-06-01T06:32:38.608Z,2.73
2018-06-01T06:35:09.418Z,2.80
2018-06-01T06:37:40.305Z,4.63
2018-06-01T06:40:11.053Z,3.20
2018-06-01T06:42:41.871Z,4.70
2018-06-01T06:45:12.672Z,5.10
2018-06-01T06:47:43.490Z,3.90
2018-06-01T06:50:14.256Z,2.70
2018-06-01T06:52:45.043Z,2.33
2018-06-01T06:55:15.907Z,2.93
2018-06-01T06:57:46.697Z,2.30
2018-06-01T07:00:17.502Z,2.27
2018-06-01T07:02:48.370Z,2.20
2018-06-01T07:05:19.088Z,2.03
2018-06-01T07:07:49.899Z,1.87
2018-06-01T07:10:20.696Z,2.20
2018-06-01T07:12:51.509Z,1.93
2018-06-01T07:15:22.286Z,3.00
2018-06-01T07:17:54.217Z,4.17
2018-06-01T07:20:25.010Z,2.13
2018-06-01T07:22:56.809Z,1.67
2018-06-01T07:25:27.611Z,3.00
2018-06-01T07:27:58.421Z,2.20
2018-06-01T07:30:29.200Z,1.90
2018-06-01T07:33:00.027Z,2.13
2018-06-01T07:35:30.813Z,1.90
2018-06-01T07:38:01.611Z,2.13
2018-06-01T07:40:32.461Z,3.70
2018-06-01T07:43:03.288Z,2.30
2018-06-01T07:45:34.139Z,2.93
2018-06-01T07:48:05.033Z,2.90
2018-06-01T07:50:36.729Z,1.40
2018-06-01T07:53:07.530Z,1.70
2018-06-01T07:55:38.317Z,1.80
2018-06-01T07:58:09.167Z,2.10
2018-06-01T08:00:39.964Z,2.47
2018-06-01T08:03:10.807Z,3.93
2018-06-01T08:05:41.584Z,2.03
2018-06-01T08:08:12.367Z,1.80
2018-06-01T08:10:43.161Z,2.23
2018-06-01T08:13:13.987Z,2.13
2018-06-01T08:15:44.784Z,2.67
2018-06-01T08:18:15.597Z,3.17
2018-06-01T08:20:46.408Z,5.57
2018-06-01T08:23:18.212Z,1.57
2018-06-01T08:25:49.033Z,2.50
2018-06-01T08:28:19.866Z,1.43
2018-06-01T08:30:50.664Z,2.10
2018-06-01T08:33:21.474Z,2.47
2018-06-01T08:35:52.287Z,1.60
2018-06-01T08:38:23.089Z,2.57
2018-06-01T08:40:55.865Z,2.07
2018-06-01T08:43:26.664Z,2.97
2018-06-01T08:45:57.451Z,2.60
2018-06-01T08:48:28.285Z,1.97
2018-06-01T08:50:59.096Z,1.73
2018-06-01T08:53:29.897Z,1.80
2018-06-01T08:56:00.677Z,1.77
2018-06-01T08:58:31.482Z,1.93
2018-06-01T09:01:02.284Z,5.00
2018-06-01T09:03:33.084Z,2.37
2018-06-01T09:06:03.909Z,1.67
2018-06-01T09:08:34.712Z,1.63
2018-06-01T09:11:05.492Z,1.70
2018-06-01T09:13:36.308Z,2.37
2018-06-01T09:16:07.072Z,1.77
2018-06-01T09:18:37.870Z,2.33
2018-06-01T09:21:08.704Z,2.00
2018-06-01T09:23:39.552Z,1.60
2018-06-01T09:26:10.345Z,2.00
2018-06-01T09:28:41.153Z,3.00
2018-06-01T09:31:11.944Z,2.27
2018-06-01T09:33:42.743Z,2.53
2018-06-01T09:36:13.535Z,2.27
2018-06-01T09:38:44.328Z,3.33
2018-06-01T09:41:15.092Z,1.50
2018-06-01T09:43:45.870Z,2.10
2018-06-01T09:46:16.653Z,2.90
2018-06-01T09:48:47.468Z,2.13
2018-06-01T09:51:18.239Z,2.70
2018-06-01T09:53:49.034Z,2.60
2018-06-01T09:56:19.825Z,2.40
2018-06-01T09:58:50.621Z,1.67
2018-06-01T10:01:27.516Z,1.93
2018-06-01T10:03:58.319Z,2.27
2018-06-01T10:06:29.123Z,2.70
2018-06-01T10:08:59.963Z,2.03
2018-06-01T10:11:30.762Z,3.13
2018-06-01T10:14:01.577Z,1.70
2018-06-01T10:16:32.347Z,2.50
2018-06-01T10:19:03.205Z,2.93
2018-06-01T10:21:34.037Z,2.10
2018-06-01T10:24:04.832Z,2.10
2018-06-01T10:26:35.666Z,2.17
2018-06-01T10:29:06.428Z,3.23
2018-06-01T10:31:37.209Z,2.00
2018-06-01T10:34:08.012Z,3.40
2018-06-01T10:36:38.781Z,3.57
2018-06-01T10:39:09.572Z,2.30
2018-06-01T10:41:40.392Z,2.30
2018-06-01T10:44:11.196Z,3.20
2018-06-01T10:46:41.996Z,2.33
2018-06-01T10:49:12.807Z,2.07
2018-06-01T10:51:43.581Z,2.77
2018-06-01T10:54:14.383Z,2.47
2018-06-01T10:56:45.169Z,2.50
2018-06-01T10:59:15.966Z,1.90
2018-06-01T11:01:46.755Z,2.07
2018-06-01T11:04:17.581Z,1.97
2018-06-01T11:06:49.216Z,2.30
2018-06-01T11:09:20.049Z,2.17
2018-06-01T11:11:50.832Z,2.20
2018-06-01T11:14:21.628Z,2.30
2018-06-01T11:16:52.411Z,2.53
2018-06-01T11:19:23.198Z,2.93
2018-06-01T11:21:53.969Z,2.47
2018-06-01T11:24:24.780Z,2.97
2018-06-01T11:26:55.597Z,2.20
2018-06-01T11:29:26.374Z,3.10
2018-06-01T11:31:57.167Z,4.60
2018-06-01T11:34:28.002Z,1.97
2018-06-01T11:36:58.803Z,3.90
2018-06-01T11:39:29.615Z,5.03
2018-06-01T11:42:00.407Z,1.90
2018-06-01T11:44:31.224Z,3.10
2018-06-01T11:47:02.011Z,2.13
2018-06-01T11:49:32.829Z,2.23
2018-06-01T11:52:03.647Z,1.90
2018-06-01T11:54:34.461Z,1.97
2018-06-01T11:57:05.261Z,1.93
2018-06-01T11:59:36.065Z,3.77
2018-06-01T12:02:06.840Z,3.80
2018-06-01T12:04:37.637Z,2.40
2018-06-01T12:07:08.485Z,1.97
2018-06-01T12:09:39.246Z,2.27
2018-06-01T12:12:10.024Z,2.90
2018-06-01T12:14:40.821Z,3.20
2018-06-01T12:17:11.584Z,2.10
2018-06-01T12:19:42.370Z,2.20
2018-06-01T12:22:13.166Z,3.53
2018-06-01T12:24:43.979Z,1.77
2018-06-01T12:27:14.778Z,2.03
2018-06-01T12:29:45.576Z,2.00
2018-06-01T12:32:16.378Z,1.70
2018-06-01T12:34:47.183Z,1.53
2018-06-01T12:37:17.946Z,1.87
2018-06-01T12:39:48.758Z,3.20
2018-06-01T12:42:19.547Z,1.90
2018-06-01T12:44:50.351Z,3.73
2018-06-01T12:47:21.162Z,1.60
2018-06-01T12:49:51.990Z,1.70
2018-06-01T12:52:22.770Z,2.47
2018-06-01T12:54:53.593Z,2.37
2018-06-01T12:57:24.352Z,2.80
2018-06-01T12:59:55.145Z,2.00
2018-06-01T13:02:25.910Z,1.80
2018-06-01T13:04:56.679Z,2.13
2018-06-01T13:07:27.455Z,2.60
2018-06-01T13:09:58.251Z,1.80
2018-06-01T13:12:29.022Z,2.13
2018-06-01T13:14:59.887Z,4.50
2018-06-01T13:17:30.651Z,2.80
2018-06-01T13:20:01.473Z,2.20
2018-06-01T13:22:32.247Z,3.57
2018-06-01T13:25:03.073Z,2.20
2018-06-01T13:27:33.891Z,1.83
2018-06-01T13:30:04.688Z,2.23
2018-06-01T13:32:35.486Z,2.60
2018-06-01T13:35:06.287Z,2.93
2018-06-01T13:37:37.047Z,2.10
2018-06-01T13:40:07.875Z,2.97
2018-06-01T13:42:39.091Z,3.03
2018-06-01T13:45:09.947Z,2.27
2018-06-01T13:47:40.761Z,1.73
2018-06-01T13:50:11.526Z,1.90
2018-06-01T13:52:42.300Z,2.70
2018-06-01T13:55:13.108Z,2.03
2018-06-01T13:57:43.896Z,1.90
2018-06-01T14:00:14.708Z,1.73
2018-06-01T14:02:45.486Z,2.10
2018-06-01T14:05:16.319Z,2.17
2018-06-01T14:07:47.102Z,2.03
2018-06-01T14:10:17.935Z,2.43
2018-06-01T14:12:48.704Z,1.90
2018-06-01T14:15:19.540Z,3.73
2018-06-01T14:17:50.338Z,2.00
2018-06-01T14:20:21.130Z,2.03
2018-06-01T14:22:51.908Z,1.93
2018-06-01T14:25:22.787Z,2.03
2018-06-01T14:27:53.573Z,2.77
2018-06-01T14:30:24.409Z,1.87
2018-06-01T14:32:55.219Z,2.73
2018-06-01T14:35:26.028Z,1.93
2018-06-01T14:37:56.802Z,2.90
2018-06-01T14:40:27.606Z,2.27
2018-06-01T14:42:58.380Z,1.53
2018-06-01T14:45:29.185Z,1.77
2018-06-01T14:47:59.948Z,1.70
2018-06-01T14:50:30.724Z,1.77
2018-06-01T14:53:01.501Z,1.90
2018-06-01T14:55:32.288Z,1.90
2018-06-01T14:58:03.079Z,1.33
2018-06-01T15:00:33.885Z,1.93
2018-06-01T15:03:04.744Z,1.80
2018-06-01T15:05:35.543Z,2.10
2018-06-01T15:08:06.333Z,2.83
2018-06-01T15:10:37.135Z,2.20
2018-06-01T15:13:07.904Z,2.60
2018-06-01T15:15:38.717Z,1.70
2018-06-01T15:18:09.507Z,1.90
2018-06-01T15:20:40.321Z,2.50
2018-06-01T15:23:11.116Z,2.23
2018-06-01T15:25:41.916Z,1.87
2018-06-01T15:28:12.686Z,1.77
2018-06-01T15:30:43.497Z,2.70
2018-06-01T15:33:14.294Z,2.00
2018-06-01T15:38:58.406Z,2.20
2018-06-01T15:41:29.245Z,2.37
2018-06-01T15:44:00.024Z,2.70
2018-06-01T15:46:31.022Z,3.00
2018-06-01T15:49:01.920Z,2.60
2018-06-01T15:51:32.690Z,3.63
2018-06-01T15:54:03.514Z,1.87
2018-06-01T15:56:34.336Z,3.07
2018-06-01T15:59:05.145Z,3.77
2018-06-01T16:01:36.043Z,1.43
2018-06-01T16:04:06.820Z,3.00
2018-06-01T16:06:37.615Z,5.37
2018-06-01T16:09:08.444Z,4.13
2018-06-01T16:11:39.232Z,1.93
2018-06-01T16:14:10.151Z,2.10
2018-06-01T16:16:41.008Z,2.83
2018-06-01T16:19:12.654Z,4.10
2018-06-01T16:21:43.482Z,2.67
2018-06-01T16:24:14.318Z,2.20
2018-06-01T16:26:45.104Z,1.73
2018-06-01T16:29:15.875Z,2.23
2018-06-01T16:31:46.705Z,1.67
2018-06-01T16:34:17.549Z,3.07
2018-06-01T16:36:48.372Z,2.50
2018-06-01T16:39:19.193Z,4.63
2018-06-01T16:41:49.971Z,2.77
2018-06-01T16:44:20.740Z,2.40
2018-06-01T16:46:51.547Z,2.40
2018-06-01T16:49:22.328Z,2.07
2018-06-01T16:51:53.413Z,3.03
2018-06-01T16:54:24.262Z,2.20
2018-06-01T16:56:55.129Z,2.43
2018-06-01T16:59:25.885Z,3.10
2018-06-01T17:01:56.694Z,2.20
2018-06-01T17:04:27.517Z,2.63
2018-06-01T17:06:58.380Z,2.63
2018-06-01T17:09:29.967Z,2.97
2018-06-01T17:12:00.788Z,2.47
2018-06-01T17:14:31.621Z,4.07
2018-06-01T17:17:02.896Z,6.43
2018-06-01T17:19:33.731Z,5.60
2018-06-01T17:22:04.536Z,3.30
2018-06-01T17:24:35.324Z,2.97
2018-06-01T17:27:06.131Z,2.80
2018-06-01T17:29:36.907Z,2.37
2018-06-01T17:32:07.717Z,2.60
2018-06-01T17:34:38.501Z,4.90
2018-06-01T17:37:10.004Z,5.03
2018-06-01T17:39:40.779Z,4.20
2018-06-01T17:42:11.568Z,3.40
2018-06-01T17:44:42.348Z,3.30
2018-06-01T17:47:13.152Z,2.63
2018-06-01T17:49:43.973Z,2.73
2018-06-01T17:52:14.773Z,2.80
2018-06-01T17:54:45.551Z,2.90
2018-06-01T17:57:17.440Z,2.30
2018-06-01T17:59:48.303Z,2.93
2018-06-01T18:02:19.225Z,2.53
2018-06-01T18:04:50.051Z,4.07
2018-06-01T18:07:20.879Z,3.87
2018-06-01T18:09:51.712Z,4.03
2018-06-01T18:12:22.520Z,4.13
2018-06-01T18:14:53.292Z,3.77
2018-06-01T18:17:24.161Z,3.00
2018-06-01T18:19:54.947Z,5.57
2018-06-01T18:22:25.781Z,2.63
2018-06-01T18:24:56.556Z,2.33
2018-06-01T18:27:27.345Z,3.43
2018-06-01T18:29:58.141Z,3.13
2018-06-01T18:32:29.704Z,3.40
2018-06-01T18:35:00.481Z,2.90
2018-06-01T18:37:31.379Z,3.23
2018-06-01T18:40:02.246Z,3.73
2018-06-01T18:42:33.053Z,2.70
2018-06-01T18:45:03.885Z,4.97
2018-06-01T18:47:35.713Z,3.30
2018-06-01T18:50:06.463Z,3.13
2018-06-01T18:52:38.362Z,2.90
2018-06-01T18:55:09.135Z,2.53
2018-06-01T18:57:39.945Z,2.87
2018-06-01T19:00:10.728Z,2.57
2018-06-01T19:02:41.515Z,3.47
2018-06-01T19:05:12.966Z,5.07
2018-06-01T19:07:45.763Z,5.10
2018-06-01T19:10:16.589Z,3.13
2018-06-01T19:12:47.379Z,3.97
2018-06-01T19:15:18.146Z,3.70
2018-06-01T19:17:48.950Z,2.80
2018-06-01T19:20:19.742Z,6.00
2018-06-01T19:22:50.564Z,2.97
2018-06-01T19:25:21.381Z,3.40
2018-06-01T19:27:52.189Z,3.67
2018-06-01T19:30:22.989Z,2.93
2018-06-01T19:32:53.804Z,3.30
2018-06-01T19:35:24.892Z,4.27
2018-06-01T19:37:55.938Z,4.40
2018-06-01T19:40:27.544Z,3.77
2018-06-01T19:42:59.379Z,3.13
2018-06-01T19:45:30.228Z,4.27
2018-06-01T19:48:01.047Z,4.97
2018-06-01T19:50:31.871Z,4.80
2018-06-01T19:53:02.666Z,3.80
2018-06-01T19:55:33.474Z,3.73
2018-06-01T19:58:04.330Z,3.90
2018-06-01T20:00:35.128Z,5.30
2018-06-01T20:03:06.197Z,3.23
2018-06-01T20:05:36.993Z,3.50
2018-06-01T20:08:07.780Z,4.10
2018-06-01T20:10:38.556Z,4.23
2018-06-01T20:13:09.418Z,4.50
2018-06-01T20:15:40.264Z,7.73
2018-06-01T20:18:11.064Z,4.27
2018-06-01T20:20:42.530Z,3.97
2018-06-01T20:23:13.343Z,6.00
2018-06-01T20:25:44.204Z,4.70
2018-06-01T20:28:14.989Z,6.70
2018-06-01T20:30:46.008Z,5.13
2018-06-01T20:33:16.863Z,4.27
2018-06-01T20:35:47.723Z,5.30
2018-06-01T20:38:18.708Z,4.43
2018-06-01T20:40:49.749Z,5.60
2018-06-01T20:43:20.548Z,5.30
2018-06-01T20:45:51.367Z,5.30
2018-06-01T20:48:22.187Z,5.23
2018-06-01T20:50:53.021Z,5.10
2018-06-01T20:53:24.003Z,5.37
2018-06-01T20:55:55.630Z,5.33
2018-06-01T20:58:26.450Z,4.67
2018-06-01T21:00:57.226Z,5.07
2018-06-01T21:03:28.096Z,4.70
2018-06-01T21:05:58.887Z,5.70
2018-06-01T21:08:29.696Z,4.93
2018-06-01T21:11:00.499Z,5.00
2018-06-01T21:13:31.299Z,6.93
2018-06-01T21:16:02.090Z,6.23
2018-06-01T21:18:32.879Z,4.27
2018-06-01T21:21:03.672Z,5.03
2018-06-01T21:23:34.476Z,4.43
2018-06-01T21:26:05.250Z,4.67
2018-06-01T21:28:36.081Z,5.00
2018-06-01T21:31:06.900Z,5.77
2018-06-01T21:33:38.498Z,5.90
2018-06-01T21:36:09.294Z,4.67
2018-06-01T21:38:40.080Z,6.83
2018-06-01T21:41:10.872Z,5.80
2018-06-01T21:43:41.647Z,4.63
2018-06-01T21:46:12.427Z,4.57
2018-06-01T21:48:43.215Z,4.90
2018-06-01T21:51:14.003Z,5.80
2018-06-01T21:53:44.816Z,5.50
2018-06-01T21:56:15.582Z,6.80
2018-06-01T21:58:46.384Z,4.27
2018-06-01T22:01:17.281Z,5.70
2018-06-01T22:03:48.098Z,6.43
2018-06-01T22:06:18.883Z,4.37
2018-06-01T22:08:49.677Z,5.37
2018-06-01T22:11:20.467Z,7.07
2018-06-01T22:13:51.247Z,5.10
2018-06-01T22:16:22.040Z,5.90
2018-06-01T22:18:52.837Z,5.57
2018-06-01T22:21:23.696Z,5.77
2018-06-01T22:23:54.506Z,5.30
2018-06-01T22:26:25.283Z,5.27
2018-06-01T22:28:56.088Z,4.80
2018-06-01T22:31:26.868Z,5.40
2018-06-01T22:33:57.663Z,4.70
2018-06-01T22:36:28.436Z,5.87
2018-06-01T22:38:59.216Z,4.70
2018-06-01T22:41:29.993Z,5.30
2018-06-01T22:44:00.801Z,5.40
2018-06-01T22:46:31.604Z,5.97
2018-06-01T22:49:02.434Z,5.60
2018-06-01T22:51:33.240Z,5.50
2018-06-01T22:54:04.003Z,5.40
2018-06-01T22:56:34.788Z,5.10
2018-06-01T22:59:05.593Z,5.20
2018-06-01T23:01:36.364Z,6.50
2018-06-01T23:04:07.144Z,5.50
2018-06-01T23:06:41.955Z,5.83
2018-06-01T23:09:18.937Z,5.03
2018-06-01T23:11:49.939Z,5.20
2018-06-01T23:14:20.808Z,4.67
2018-06-01T23:16:51.688Z,6.13
2018-06-01T23:19:22.839Z,5.40
2018-06-01T23:21:53.651Z,5.47
2018-06-01T23:24:24.438Z,5.10
2018-06-01T23:26:55.215Z,5.50
2018-06-01T23:29:26.008Z,5.40
2018-06-01T23:31:56.783Z,4.53
2018-06-01T23:34:27.584Z,5.40
2018-06-01T23:36:58.397Z,5.07
2018-06-01T23:39:29.188Z,4.80
2018-06-01T23:42:00.520Z,5.27
2018-06-01T23:44:31.360Z,5.60
2018-06-01T23:47:02.166Z,4.63
2018-06-01T23:49:32.975Z,5.17
2018-06-01T23:52:03.773Z,4.80
2018-06-01T23:54:34.592Z,5.20
2018-06-01T23:57:05.389Z,6.40
2018-06-01T23:59:36.181Z,4.30
